sensor_id;sensor_type;location;lat;lon;timestamp;P1;durP1;ratioP1;P2;durP2;ratioP2
69890;SDS011;57170;43.964;21.262;2023-08-06T13:27:10;21.73;;;18.10;;
69890;SDS011;57170;43.964;21.262;2023-08-06T13:29:37;21.88;;;17.90;;
69890;SDS011;57170;43.964;21.262;2023-08-06T13:32:04;21.27;;;17.95;;
69890;SDS011;57170;43.964;21.262;2023-08-06T13:34:30;27.08;;;21.80;;
69890;SDS011;57170;43.964;21.262;2023-08-06T13:36:56;31.63;;;20.90;;
69890;SDS011;57170;43.964;21.262;2023-08-06T13:39:22;32.20;;;23.73;;
69890;SDS011;57170;43.964;21.262;2023-08-06T13:41:48;27.17;;;21.38;;
69890;SDS011;57170;43.964;21.262;2023-08-06T13:44:14;27.05;;;19.60;;
69890;SDS011;57170;43.964;21.262;2023-08-06T13:46:41;28.45;;;22.15;;
69890;SDS011;57170;43.964;21.262;2023-08-06T13:49:07;25.65;;;21.65;;
69890;SDS011;57170;43.964;21.262;2023-08-06T13:51:33;27.77;;;21.08;;
69890;SDS011;57170;43.964;21.262;2023-08-06T13:54:00;24.77;;;21.52;;
69890;SDS011;57170;43.964;21.262;2023-08-06T13:56:26;28.40;;;20.98;;
69890;SDS011;57170;43.964;21.262;2023-08-06T13:58:54;21.45;;;18.85;;
69890;SDS011;57170;43.964;21.262;2023-08-06T14:01:20;25.10;;;21.15;;
69890;SDS011;57170;43.964;21.262;2023-08-06T14:03:46;24.10;;;20.88;;
69890;SDS011;57170;43.964;21.262;2023-08-06T14:06:13;21.35;;;19.13;;
69890;SDS011;57170;43.964;21.262;2023-08-06T14:08:39;23.70;;;18.88;;
69890;SDS011;57170;43.964;21.262;2023-08-06T14:11:05;24.02;;;20.45;;
69890;SDS011;57170;43.964;21.262;2023-08-06T14:13:32;22.05;;;18.75;;
69890;SDS011;57170;43.964;21.262;2023-08-06T14:15:58;20.15;;;18.00;;
69890;SDS011;57170;43.964;21.262;2023-08-06T14:18:24;18.67;;;15.70;;
69890;SDS011;57170;43.964;21.262;2023-08-06T14:20:52;17.80;;;15.90;;
69890;SDS011;57170;43.964;21.262;2023-08-06T14:23:18;17.92;;;15.25;;
69890;SDS011;57170;43.964;21.262;2023-08-06T14:25:44;17.42;;;15.63;;
69890;SDS011;57170;43.964;21.262;2023-08-06T14:28:10;15.90;;;14.30;;
69890;SDS011;57170;43.964;21.262;2023-08-06T14:30:37;15.25;;;13.63;;
69890;SDS011;57170;43.964;21.262;2023-08-06T14:33:04;14.35;;;12.95;;
69890;SDS011;57170;43.964;21.262;2023-08-06T14:35:30;11.95;;;10.75;;
69890;SDS011;57170;43.964;21.262;2023-08-06T14:37:56;12.55;;;11.35;;
69890;SDS011;57170;43.964;21.262;2023-08-06T14:40:22;14.82;;;10.95;;
69890;SDS011;57170;43.964;21.262;2023-08-06T14:42:48;13.07;;;10.82;;
69890;SDS011;57170;43.964;21.262;2023-08-06T14:45:14;11.68;;;10.50;;
69890;SDS011;57170;43.964;21.262;2023-08-06T14:47:40;10.68;;;9.57;;
69890;SDS011;57170;43.964;21.262;2023-08-06T14:50:06;11.55;;;10.35;;
69890;SDS011;57170;43.964;21.262;2023-08-06T14:52:33;11.57;;;10.27;;
69890;SDS011;57170;43.964;21.262;2023-08-06T14:55:00;12.05;;;10.82;;
69890;SDS011;57170;43.964;21.262;2023-08-06T14:57:27;11.82;;;10.60;;
69890;SDS011;57170;43.964;21.262;2023-08-06T14:59:53;11.73;;;10.52;;
69890;SDS011;57170;43.964;21.262;2023-08-06T15:02:20;12.07;;;10.93;;
69890;SDS011;57170;43.964;21.262;2023-08-06T15:04:46;13.73;;;10.43;;
69890;SDS011;57170;43.964;21.262;2023-08-06T15:07:12;11.02;;;9.93;;
69890;SDS011;57170;43.964;21.262;2023-08-06T15:09:38;10.90;;;9.77;;
69890;SDS011;57170;43.964;21.262;2023-08-06T15:12:04;11.98;;;9.90;;
69890;SDS011;57170;43.964;21.262;2023-08-06T15:14:30;16.25;;;9.57;;
69890;SDS011;57170;43.964;21.262;2023-08-06T15:16:56;15.55;;;10.70;;
69890;SDS011;57170;43.964;21.262;2023-08-06T15:19:23;20.60;;;11.00;;
69890;SDS011;57170;43.964;21.262;2023-08-06T15:21:50;11.43;;;9.98;;
69890;SDS011;57170;43.964;21.262;2023-08-06T15:24:16;12.32;;;9.85;;
69890;SDS011;57170;43.964;21.262;2023-08-06T15:26:42;11.30;;;10.02;;
69890;SDS011;57170;43.964;21.262;2023-08-06T15:29:08;12.55;;;10.32;;
69890;SDS011;57170;43.964;21.262;2023-08-06T15:31:38;13.10;;;10.27;;
69890;SDS011;57170;43.964;21.262;2023-08-06T15:34:05;13.35;;;10.40;;
69890;SDS011;57170;43.964;21.262;2023-08-06T15:36:32;11.63;;;10.32;;
69890;SDS011;57170;43.964;21.262;2023-08-06T15:38:59;11.95;;;10.75;;
69890;SDS011;57170;43.964;21.262;2023-08-06T15:41:25;14.70;;;10.23;;
69890;SDS011;57170;43.964;21.262;2023-08-06T15:43:51;12.38;;;11.02;;
69890;SDS011;57170;43.964;21.262;2023-08-06T15:46:17;13.52;;;12.13;;
69890;SDS011;57170;43.964;21.262;2023-08-06T15:48:43;11.10;;;9.65;;
69890;SDS011;57170;43.964;21.262;2023-08-06T15:51:10;11.85;;;9.85;;
69890;SDS011;57170;43.964;21.262;2023-08-06T15:53:36;10.05;;;8.95;;
69890;SDS011;57170;43.964;21.262;2023-08-06T15:56:02;9.82;;;8.07;;
69890;SDS011;57170;43.964;21.262;2023-08-06T15:58:30;8.80;;;7.90;;
69890;SDS011;57170;43.964;21.262;2023-08-06T16:00:57;11.57;;;8.52;;
69890;SDS011;57170;43.964;21.262;2023-08-06T16:03:23;9.93;;;8.05;;
69890;SDS011;57170;43.964;21.262;2023-08-06T16:05:49;9.32;;;8.30;;
69890;SDS011;57170;43.964;21.262;2023-08-06T16:08:15;11.52;;;8.32;;
69890;SDS011;57170;43.964;21.262;2023-08-06T16:10:41;9.60;;;7.90;;
69890;SDS011;57170;43.964;21.262;2023-08-06T16:13:09;8.05;;;6.78;;
69890;SDS011;57170;43.964;21.262;2023-08-06T16:15:35;6.85;;;6.00;;
69890;SDS011;57170;43.964;21.262;2023-08-06T16:18:02;9.77;;;7.38;;
69890;SDS011;57170;43.964;21.262;2023-08-06T16:20:28;10.73;;;7.03;;
69890;SDS011;57170;43.964;21.262;2023-08-06T16:22:54;9.30;;;6.05;;
69890;SDS011;57170;43.964;21.262;2023-08-06T16:25:20;9.00;;;7.03;;
69890;SDS011;57170;43.964;21.262;2023-08-06T16:27:46;9.00;;;7.18;;
69890;SDS011;57170;43.964;21.262;2023-08-06T16:30:12;11.35;;;8.15;;
69890;SDS011;57170;43.964;21.262;2023-08-06T16:32:40;11.82;;;8.90;;
69890;SDS011;57170;43.964;21.262;2023-08-06T16:35:07;10.82;;;7.85;;
69890;SDS011;57170;43.964;21.262;2023-08-06T16:37:34;8.80;;;7.80;;
69890;SDS011;57170;43.964;21.262;2023-08-06T16:40:00;9.23;;;7.65;;
69890;SDS011;57170;43.964;21.262;2023-08-06T16:42:27;9.75;;;7.97;;
69890;SDS011;57170;43.964;21.262;2023-08-06T16:44:54;10.82;;;8.68;;
69890;SDS011;57170;43.964;21.262;2023-08-06T16:47:20;11.30;;;8.65;;
69890;SDS011;57170;43.964;21.262;2023-08-06T16:49:46;9.43;;;8.30;;
69890;SDS011;57170;43.964;21.262;2023-08-06T16:52:12;11.00;;;8.98;;
69890;SDS011;57170;43.964;21.262;2023-08-06T16:54:38;10.75;;;8.70;;
69890;SDS011;57170;43.964;21.262;2023-08-06T16:57:04;12.32;;;8.95;;
69890;SDS011;57170;43.964;21.262;2023-08-06T16:59:30;9.75;;;8.15;;
69890;SDS011;57170;43.964;21.262;2023-08-06T17:01:56;12.30;;;9.73;;
69890;SDS011;57170;43.964;21.262;2023-08-06T17:04:22;9.15;;;8.25;;
69890;SDS011;57170;43.964;21.262;2023-08-06T17:06:49;9.25;;;8.35;;
69890;SDS011;57170;43.964;21.262;2023-08-06T17:09:15;8.75;;;7.82;;
69890;SDS011;57170;43.964;21.262;2023-08-06T17:11:41;9.30;;;8.30;;
69890;SDS011;57170;43.964;21.262;2023-08-06T17:14:07;9.40;;;8.02;;
69890;SDS011;57170;43.964;21.262;2023-08-06T17:16:34;9.77;;;8.27;;
69890;SDS011;57170;43.964;21.262;2023-08-06T17:19:01;8.63;;;6.05;;
69890;SDS011;57170;43.964;21.262;2023-08-06T17:21:28;7.70;;;5.82;;
69890;SDS011;57170;43.964;21.262;2023-08-06T17:23:54;7.97;;;5.60;;
69890;SDS011;57170;43.964;21.262;2023-08-06T17:26:20;7.78;;;6.20;;
69890;SDS011;57170;43.964;21.262;2023-08-06T17:28:46;7.30;;;5.25;;
69890;SDS011;57170;43.964;21.262;2023-08-06T17:31:14;11.57;;;6.57;;
69890;SDS011;57170;43.964;21.262;2023-08-06T17:33:40;6.88;;;5.60;;
69890;SDS011;57170;43.964;21.262;2023-08-06T17:36:06;5.45;;;4.78;;
69890;SDS011;57170;43.964;21.262;2023-08-06T17:38:32;8.43;;;5.53;;
69890;SDS011;57170;43.964;21.262;2023-08-06T17:40:58;6.85;;;4.97;;
69890;SDS011;57170;43.964;21.262;2023-08-06T17:43:25;5.68;;;4.30;;
69890;SDS011;57170;43.964;21.262;2023-08-06T17:45:51;5.15;;;4.18;;
69890;SDS011;57170;43.964;21.262;2023-08-06T17:48:17;6.25;;;4.95;;
69890;SDS011;57170;43.964;21.262;2023-08-06T17:50:44;6.00;;;4.57;;
69890;SDS011;57170;43.964;21.262;2023-08-06T17:53:10;7.07;;;4.63;;
69890;SDS011;57170;43.964;21.262;2023-08-06T17:55:37;5.85;;;4.50;;
69890;SDS011;57170;43.964;21.262;2023-08-06T17:58:03;5.88;;;5.10;;
69890;SDS011;57170;43.964;21.262;2023-08-06T18:00:32;6.03;;;4.85;;
69890;SDS011;57170;43.964;21.262;2023-08-06T18:02:58;8.88;;;5.18;;
69890;SDS011;57170;43.964;21.262;2023-08-06T18:05:25;5.72;;;3.80;;
69890;SDS011;57170;43.964;21.262;2023-08-06T18:07:52;6.95;;;4.80;;
69890;SDS011;57170;43.964;21.262;2023-08-06T18:10:19;6.90;;;4.70;;
69890;SDS011;57170;43.964;21.262;2023-08-06T18:12:45;6.10;;;5.03;;
69890;SDS011;57170;43.964;21.262;2023-08-06T18:15:11;6.00;;;5.05;;
69890;SDS011;57170;43.964;21.262;2023-08-06T18:17:37;7.40;;;4.72;;
69890;SDS011;57170;43.964;21.262;2023-08-06T18:20:04;6.25;;;5.28;;
69890;SDS011;57170;43.964;21.262;2023-08-06T18:22:31;5.82;;;4.50;;
69890;SDS011;57170;43.964;21.262;2023-08-06T18:24:58;5.90;;;5.28;;
69890;SDS011;57170;43.964;21.262;2023-08-06T18:27:27;6.50;;;5.10;;
69890;SDS011;57170;43.964;21.262;2023-08-06T18:29:53;6.63;;;5.70;;
69890;SDS011;57170;43.964;21.262;2023-08-06T18:32:19;7.72;;;5.47;;
69890;SDS011;57170;43.964;21.262;2023-08-06T18:34:45;8.45;;;6.47;;
69890;SDS011;57170;43.964;21.262;2023-08-06T18:37:12;7.40;;;4.75;;
69890;SDS011;57170;43.964;21.262;2023-08-06T18:39:38;8.27;;;5.30;;
69890;SDS011;57170;43.964;21.262;2023-08-06T18:42:06;52.83;;;44.05;;
69890;SDS011;57170;43.964;21.262;2023-08-06T18:44:32;6.45;;;5.63;;
69890;SDS011;57170;43.964;21.262;2023-08-06T18:46:58;21.15;;;16.98;;
69890;SDS011;57170;43.964;21.262;2023-08-06T18:49:24;15.18;;;12.88;;
69890;SDS011;57170;43.964;21.262;2023-08-06T18:51:50;11.15;;;9.23;;
69890;SDS011;57170;43.964;21.262;2023-08-06T18:54:16;9.60;;;6.18;;
69890;SDS011;57170;43.964;21.262;2023-08-06T18:56:43;6.55;;;5.88;;
69890;SDS011;57170;43.964;21.262;2023-08-06T18:59:09;9.98;;;7.40;;
69890;SDS011;57170;43.964;21.262;2023-08-06T19:01:36;7.93;;;7.13;;
69890;SDS011;57170;43.964;21.262;2023-08-06T19:04:02;7.40;;;6.70;;
69890;SDS011;57170;43.964;21.262;2023-08-06T19:06:28;10.50;;;8.30;;
69890;SDS011;57170;43.964;21.262;2023-08-06T19:08:55;8.48;;;7.63;;
69890;SDS011;57170;43.964;21.262;2023-08-06T19:11:22;8.23;;;7.43;;
69890;SDS011;57170;43.964;21.262;2023-08-06T19:13:48;8.18;;;7.07;;
69890;SDS011;57170;43.964;21.262;2023-08-06T19:16:14;8.88;;;7.30;;
69890;SDS011;57170;43.964;21.262;2023-08-06T19:18:40;7.82;;;7.03;;
69890;SDS011;57170;43.964;21.262;2023-08-06T19:21:06;9.45;;;7.68;;
69890;SDS011;57170;43.964;21.262;2023-08-06T19:23:32;11.35;;;7.18;;
69890;SDS011;57170;43.964;21.262;2023-08-06T19:25:59;8.27;;;6.93;;
69890;SDS011;57170;43.964;21.262;2023-08-06T19:28:27;8.82;;;6.55;;
69890;SDS011;57170;43.964;21.262;2023-08-06T19:30:53;10.38;;;7.00;;
69890;SDS011;57170;43.964;21.262;2023-08-06T19:33:19;8.35;;;6.68;;
69890;SDS011;57170;43.964;21.262;2023-08-06T19:35:52;9.10;;;6.75;;
69890;SDS011;57170;43.964;21.262;2023-08-06T19:40:45;6.90;;;5.82;;
69890;SDS011;57170;43.964;21.262;2023-08-06T19:43:12;8.40;;;5.88;;
69890;SDS011;57170;43.964;21.262;2023-08-06T19:45:38;7.43;;;6.25;;
69890;SDS011;57170;43.964;21.262;2023-08-06T19:48:05;8.98;;;6.57;;
69890;SDS011;57170;43.964;21.262;2023-08-06T19:50:31;6.75;;;6.15;;
69890;SDS011;57170;43.964;21.262;2023-08-06T19:52:57;8.10;;;6.68;;
69890;SDS011;57170;43.964;21.262;2023-08-06T19:55:24;6.90;;;5.95;;
69890;SDS011;57170;43.964;21.262;2023-08-06T19:57:50;6.90;;;5.50;;
69890;SDS011;57170;43.964;21.262;2023-08-06T20:00:16;6.57;;;5.85;;
69890;SDS011;57170;43.964;21.262;2023-08-06T20:02:42;6.32;;;5.30;;
69890;SDS011;57170;43.964;21.262;2023-08-06T20:05:08;7.65;;;5.65;;
69890;SDS011;57170;43.964;21.262;2023-08-06T20:07:35;6.72;;;5.63;;
69890;SDS011;57170;43.964;21.262;2023-08-06T20:10:01;6.47;;;5.40;;
69890;SDS011;57170;43.964;21.262;2023-08-06T20:12:27;9.02;;;6.00;;
69890;SDS011;57170;43.964;21.262;2023-08-06T20:14:53;6.00;;;4.85;;
69890;SDS011;57170;43.964;21.262;2023-08-06T20:17:19;6.25;;;5.63;;
69890;SDS011;57170;43.964;21.262;2023-08-06T20:19:45;5.78;;;4.70;;
69890;SDS011;57170;43.964;21.262;2023-08-06T20:22:11;8.23;;;5.75;;
69890;SDS011;57170;43.964;21.262;2023-08-06T20:24:37;8.75;;;5.97;;
69890;SDS011;57170;43.964;21.262;2023-08-06T20:27:03;6.88;;;5.38;;
69890;SDS011;57170;43.964;21.262;2023-08-06T20:29:30;6.15;;;5.20;;
69890;SDS011;57170;43.964;21.262;2023-08-06T20:31:56;5.63;;;4.68;;
69890;SDS011;57170;43.964;21.262;2023-08-06T20:34:22;5.22;;;4.20;;
69890;SDS011;57170;43.964;21.262;2023-08-06T20:36:48;7.13;;;4.85;;
69890;SDS011;57170;43.964;21.262;2023-08-06T20:39:14;6.35;;;3.90;;
69890;SDS011;57170;43.964;21.262;2023-08-06T20:41:40;4.40;;;3.60;;
69890;SDS011;57170;43.964;21.262;2023-08-06T20:44:06;5.90;;;3.92;;
69890;SDS011;57170;43.964;21.262;2023-08-06T20:46:32;5.50;;;3.28;;
69890;SDS011;57170;43.964;21.262;2023-08-06T20:48:58;5.28;;;3.30;;
69890;SDS011;57170;43.964;21.262;2023-08-06T20:51:25;6.03;;;3.15;;
69890;SDS011;57170;43.964;21.262;2023-08-06T20:53:51;3.92;;;2.90;;
69890;SDS011;57170;43.964;21.262;2023-08-06T20:56:17;5.13;;;2.45;;
69890;SDS011;57170;43.964;21.262;2023-08-06T20:58:43;6.57;;;3.22;;
69890;SDS011;57170;43.964;21.262;2023-08-06T21:01:09;5.32;;;2.85;;
69890;SDS011;57170;43.964;21.262;2023-08-06T21:03:35;9.77;;;3.10;;
69890;SDS011;57170;43.964;21.262;2023-08-06T21:06:03;3.97;;;2.60;;
69890;SDS011;57170;43.964;21.262;2023-08-06T21:08:29;4.72;;;3.10;;
69890;SDS011;57170;43.964;21.262;2023-08-06T21:10:56;5.03;;;2.60;;
69890;SDS011;57170;43.964;21.262;2023-08-06T21:13:22;5.03;;;2.83;;
69890;SDS011;57170;43.964;21.262;2023-08-06T21:15:55;6.97;;;3.20;;
69890;SDS011;57170;43.964;21.262;2023-08-06T21:18:21;6.40;;;3.35;;
69890;SDS011;57170;43.964;21.262;2023-08-06T21:20:51;6.28;;;3.00;;
69890;SDS011;57170;43.964;21.262;2023-08-06T21:23:18;5.07;;;3.10;;
69890;SDS011;57170;43.964;21.262;2023-08-06T21:25:47;4.60;;;3.45;;
69890;SDS011;57170;43.964;21.262;2023-08-06T21:28:14;5.25;;;3.60;;
69890;SDS011;57170;43.964;21.262;2023-08-06T21:30:40;4.95;;;3.58;;
69890;SDS011;57170;43.964;21.262;2023-08-06T21:33:06;9.18;;;4.05;;
69890;SDS011;57170;43.964;21.262;2023-08-06T21:35:32;6.50;;;4.00;;
69890;SDS011;57170;43.964;21.262;2023-08-06T21:37:58;9.10;;;3.85;;
69890;SDS011;57170;43.964;21.262;2023-08-06T21:40:24;4.97;;;3.10;;
69890;SDS011;57170;43.964;21.262;2023-08-06T21:42:50;4.47;;;3.42;;
69890;SDS011;57170;43.964;21.262;2023-08-06T21:45:16;9.38;;;3.42;;
69890;SDS011;57170;43.964;21.262;2023-08-06T21:47:44;6.03;;;3.58;;
69890;SDS011;57170;43.964;21.262;2023-08-06T21:50:10;5.65;;;3.90;;
69890;SDS011;57170;43.964;21.262;2023-08-06T21:52:37;10.10;;;3.90;;
69890;SDS011;57170;43.964;21.262;2023-08-06T21:55:03;6.18;;;3.20;;
69890;SDS011;57170;43.964;21.262;2023-08-06T21:57:29;10.68;;;4.45;;
69890;SDS011;57170;43.964;21.262;2023-08-06T21:59:55;7.22;;;3.05;;
69890;SDS011;57170;43.964;21.262;2023-08-06T22:02:21;7.40;;;2.67;;
69890;SDS011;57170;43.964;21.262;2023-08-06T22:04:47;4.10;;;2.20;;
69890;SDS011;57170;43.964;21.262;2023-08-06T22:07:13;3.72;;;2.38;;
69890;SDS011;57170;43.964;21.262;2023-08-06T22:09:39;4.38;;;2.30;;
69890;SDS011;57170;43.964;21.262;2023-08-06T22:12:05;8.57;;;2.08;;
69890;SDS011;57170;43.964;21.262;2023-08-06T22:14:32;3.72;;;2.10;;
69890;SDS011;57170;43.964;21.262;2023-08-06T22:16:58;3.70;;;2.28;;
69890;SDS011;57170;43.964;21.262;2023-08-06T22:19:24;5.00;;;2.40;;
69890;SDS011;57170;43.964;21.262;2023-08-06T22:21:50;4.35;;;2.22;;
69890;SDS011;57170;43.964;21.262;2023-08-06T22:24:16;5.82;;;2.20;;
69890;SDS011;57170;43.964;21.262;2023-08-06T22:26:42;8.80;;;2.40;;
69890;SDS011;57170;43.964;21.262;2023-08-06T22:29:08;4.90;;;2.25;;
69890;SDS011;57170;43.964;21.262;2023-08-06T22:31:34;5.15;;;2.10;;
69890;SDS011;57170;43.964;21.262;2023-08-06T22:34:00;6.13;;;2.47;;
69890;SDS011;57170;43.964;21.262;2023-08-06T22:36:26;10.27;;;2.92;;
69890;SDS011;57170;43.964;21.262;2023-08-06T22:38:52;4.63;;;2.33;;
69890;SDS011;57170;43.964;21.262;2023-08-06T22:41:18;4.00;;;2.72;;
69890;SDS011;57170;43.964;21.262;2023-08-06T22:43:47;3.47;;;2.38;;
69890;SDS011;57170;43.964;21.262;2023-08-06T22:46:14;3.53;;;1.98;;
69890;SDS011;57170;43.964;21.262;2023-08-06T22:48:40;4.38;;;2.08;;
69890;SDS011;57170;43.964;21.262;2023-08-06T22:51:06;4.93;;;2.92;;
69890;SDS011;57170;43.964;21.262;2023-08-06T22:53:32;4.43;;;2.40;;
69890;SDS011;57170;43.964;21.262;2023-08-06T22:55:58;4.60;;;2.30;;
69890;SDS011;57170;43.964;21.262;2023-08-06T22:58:24;3.35;;;2.45;;
69890;SDS011;57170;43.964;21.262;2023-08-06T23:00:50;6.43;;;2.97;;
69890;SDS011;57170;43.964;21.262;2023-08-06T23:03:16;4.35;;;2.80;;
69890;SDS011;57170;43.964;21.262;2023-08-06T23:05:42;5.00;;;2.70;;
69890;SDS011;57170;43.964;21.262;2023-08-06T23:08:08;4.28;;;2.50;;
69890;SDS011;57170;43.964;21.262;2023-08-06T23:10:34;4.32;;;2.10;;
69890;SDS011;57170;43.964;21.262;2023-08-06T23:13:01;3.78;;;2.50;;
69890;SDS011;57170;43.964;21.262;2023-08-06T23:15:27;4.20;;;2.30;;
69890;SDS011;57170;43.964;21.262;2023-08-06T23:17:53;7.78;;;2.92;;
69890;SDS011;57170;43.964;21.262;2023-08-06T23:20:19;3.60;;;2.42;;
69890;SDS011;57170;43.964;21.262;2023-08-06T23:22:45;5.60;;;3.33;;
69890;SDS011;57170;43.964;21.262;2023-08-06T23:25:11;6.38;;;2.80;;
69890;SDS011;57170;43.964;21.262;2023-08-06T23:27:37;5.20;;;2.80;;
69890;SDS011;57170;43.964;21.262;2023-08-06T23:30:04;4.28;;;2.83;;
69890;SDS011;57170;43.964;21.262;2023-08-06T23:32:30;4.50;;;3.00;;
69890;SDS011;57170;43.964;21.262;2023-08-06T23:34:57;5.30;;;2.70;;
69890;SDS011;57170;43.964;21.262;2023-08-06T23:37:23;4.63;;;3.15;;
69890;SDS011;57170;43.964;21.262;2023-08-06T23:39:49;5.35;;;3.00;;
69890;SDS011;57170;43.964;21.262;2023-08-06T23:42:20;5.72;;;2.90;;
69890;SDS011;57170;43.964;21.262;2023-08-06T23:44:46;5.18;;;2.97;;
69890;SDS011;57170;43.964;21.262;2023-08-06T23:47:12;5.60;;;3.38;;
69890;SDS011;57170;43.964;21.262;2023-08-06T23:49:38;10.07;;;4.13;;
69890;SDS011;57170;43.964;21.262;2023-08-06T23:52:04;7.07;;;3.33;;
69890;SDS011;57170;43.964;21.262;2023-08-06T23:54:31;5.50;;;3.53;;
69890;SDS011;57170;43.964;21.262;2023-08-06T23:56:57;8.00;;;3.80;;
69890;SDS011;57170;43.964;21.262;2023-08-06T23:59:23;6.45;;;3.85;;
